createdAt,value
2022-08-21T07:24:07.807Z,3.50
2022-08-21T07:27:17.496Z,3.50
2022-08-21T07:30:27.877Z,3.67
2022-08-21T07:33:38.028Z,3.93
2022-08-21T07:36:48.041Z,4.60
2022-08-21T07:40:00.557Z,3.83
2022-08-21T07:43:10.316Z,3.80
2022-08-21T07:46:20.355Z,4.33
2022-08-21T07:49:31.024Z,3.80
2022-08-21T07:52:41.359Z,3.50
2022-08-21T07:55:52.389Z,4.30
2022-08-21T07:59:03.619Z,3.67
2022-08-21T08:02:24.076Z,3.13
2022-08-21T08:05:34.046Z,3.77
2022-08-21T08:08:44.175Z,3.13
2022-08-21T08:11:55.075Z,3.37
2022-08-21T08:15:09.667Z,4.13
2022-08-21T08:18:19.563Z,3.60
2022-08-21T08:21:29.191Z,3.60
2022-08-21T08:24:40.720Z,3.57
2022-08-21T08:27:51.818Z,2.90
2022-08-21T08:31:02.465Z,2.97
2022-08-21T08:34:12.077Z,2.67
2022-08-21T08:37:35.062Z,2.90
2022-08-21T08:40:53.292Z,3.20
2022-08-21T08:44:08.228Z,2.90
2022-08-21T08:47:20.260Z,2.77
2022-08-21T08:50:40.333Z,3.20
2022-08-21T08:53:54.736Z,2.67
2022-08-21T08:57:09.532Z,2.63
2022-08-21T09:00:24.057Z,2.90
2022-08-21T09:03:34.904Z,3.10
2022-08-21T09:06:57.960Z,3.20
2022-08-21T09:10:18.935Z,2.90
2022-08-21T09:13:42.049Z,2.70
2022-08-21T09:17:00.455Z,2.67
2022-08-21T09:20:19.848Z,3.27
2022-08-21T09:23:40.395Z,2.53
2022-08-21T09:26:56.260Z,2.93
2022-08-21T09:30:09.305Z,2.63
2022-08-21T09:33:21.789Z,2.37
2022-08-21T09:36:39.158Z,2.50
2022-08-21T09:39:49.036Z,2.57
2022-08-21T09:43:01.062Z,2.87
2022-08-21T09:46:12.610Z,2.43
2022-08-21T09:49:31.676Z,2.70
2022-08-21T09:52:47.832Z,2.40
2022-08-21T09:56:11.972Z,2.60
2022-08-21T09:59:29.280Z,2.30
2022-08-21T10:02:40.488Z,2.30
2022-08-21T10:05:58.689Z,2.53
2022-08-21T10:09:13.653Z,2.70
2022-08-21T10:12:35.203Z,2.43
2022-08-21T10:15:52.933Z,2.27
2022-08-21T10:19:14.104Z,2.60
2022-08-21T10:22:36.584Z,2.57
2022-08-21T10:25:57.024Z,2.23
2022-08-21T10:29:40.880Z,2.57
2022-08-21T10:33:06.045Z,2.40
2022-08-21T10:36:21.678Z,2.60
2022-08-21T10:39:36.752Z,2.60
2022-08-21T10:42:58.609Z,2.47
2022-08-21T10:46:17.862Z,2.77
2022-08-21T10:49:40.404Z,2.60
2022-08-21T10:53:04.541Z,2.80
2022-08-21T10:56:19.906Z,2.60
2022-08-21T10:59:38.749Z,2.43
2022-08-21T11:02:52.704Z,2.80
2022-08-21T11:06:08.543Z,2.60
2022-08-21T11:09:20.650Z,2.43
2022-08-21T11:12:41.273Z,2.77
2022-08-21T11:15:58.104Z,2.43
2022-08-21T11:19:12.986Z,2.73
2022-08-21T11:22:28.643Z,2.80
2022-08-21T11:25:43.293Z,2.60
2022-08-21T11:28:58.520Z,2.40
2022-08-21T11:32:29.577Z,2.50
2022-08-21T11:35:45.875Z,2.83
2022-08-21T11:39:02.323Z,2.60
2022-08-21T11:42:22.554Z,2.30
2022-08-21T11:45:41.385Z,2.00
2022-08-21T11:49:04.533Z,2.80
2022-08-21T11:52:20.195Z,2.27
2022-08-21T11:55:35.975Z,2.80
2022-08-21T11:58:49.861Z,2.90
2022-08-21T12:02:02.711Z,2.53
2022-08-21T12:05:26.883Z,2.57
2022-08-21T12:08:39.269Z,2.47
2022-08-21T12:11:50.428Z,2.53
2022-08-21T12:15:16.279Z,2.60
2022-08-21T12:18:32.865Z,2.83
2022-08-21T12:21:55.412Z,5.23
2022-08-21T12:25:08.558Z,2.47
2022-08-21T12:28:24.961Z,2.77
2022-08-21T12:31:34.611Z,2.73
2022-08-21T12:34:50.225Z,2.20
2022-08-21T12:38:09.240Z,2.27
2022-08-21T12:41:23.463Z,2.43
2022-08-21T12:44:39.780Z,2.53
2022-08-21T12:47:57.044Z,2.43
2022-08-21T12:51:14.064Z,2.63
2022-08-21T12:54:26.566Z,2.63
2022-08-21T12:57:39.371Z,2.70
2022-08-21T13:00:52.165Z,2.50
2022-08-21T13:04:05.933Z,2.30
2022-08-21T13:07:23.256Z,2.50
2022-08-21T13:10:35.141Z,2.50
2022-08-21T13:13:50.010Z,2.43
2022-08-21T13:17:04.814Z,2.50
2022-08-21T13:20:23.553Z,2.27
2022-08-21T13:23:34.572Z,2.50
2022-08-21T13:26:44.703Z,2.50
2022-08-21T13:30:07.688Z,2.20
2022-08-21T13:33:20.088Z,2.73
2022-08-21T13:36:34.597Z,2.27
2022-08-21T13:39:52.813Z,2.33
2022-08-21T13:43:03.243Z,2.60
2022-08-21T13:46:15.550Z,2.07
2022-08-21T13:49:31.019Z,2.23
2022-08-21T13:52:52.617Z,2.13
2022-08-21T13:56:05.697Z,2.47
2022-08-21T13:59:26.761Z,2.70
2022-08-21T14:02:41.627Z,2.20
2022-08-21T14:05:51.387Z,2.43
2022-08-21T14:09:03.767Z,2.67
2022-08-21T14:12:23.397Z,2.63
2022-08-21T14:15:35.928Z,2.57
2022-08-21T14:18:48.186Z,2.20
2022-08-21T14:21:57.914Z,2.27
2022-08-21T14:25:11.509Z,2.10
2022-08-21T14:28:28.083Z,2.10
2022-08-21T14:31:43.398Z,2.47
2022-08-21T14:34:54.796Z,1.90
2022-08-21T14:38:12.845Z,2.00
2022-08-21T14:41:26.517Z,2.60
2022-08-21T14:44:37.441Z,2.20
2022-08-21T14:47:47.128Z,2.70
2022-08-21T14:51:00.408Z,2.47
2022-08-21T14:54:10.391Z,2.17
2022-08-21T14:57:20.045Z,2.57
2022-08-21T15:00:36.250Z,2.10
2022-08-21T15:03:46.878Z,2.40
2022-08-21T15:06:56.703Z,2.30
2022-08-21T15:10:07.319Z,2.33
2022-08-21T15:13:19.707Z,1.97
2022-08-21T15:16:32.005Z,2.57
2022-08-21T15:19:42.730Z,2.47
2022-08-21T15:22:52.730Z,2.50
2022-08-21T15:26:02.776Z,2.50
2022-08-21T15:29:12.511Z,2.83
2022-08-21T15:32:27.136Z,2.53
2022-08-21T15:35:37.578Z,2.40
2022-08-21T15:38:50.876Z,2.40
2022-08-21T15:42:02.789Z,2.20
2022-08-21T15:45:21.197Z,2.33
2022-08-21T15:48:32.087Z,2.33
2022-08-21T15:51:43.639Z,2.17
2022-08-21T15:54:54.029Z,2.40
2022-08-21T15:58:06.072Z,2.50
2022-08-21T16:01:15.921Z,2.27
2022-08-21T16:04:29.110Z,2.27
2022-08-21T16:07:38.825Z,2.30
2022-08-21T16:10:48.957Z,2.17
2022-08-21T16:13:58.718Z,2.20
2022-08-21T16:17:09.336Z,2.20
2022-08-21T16:20:22.693Z,2.23
2022-08-21T16:23:32.320Z,2.13
2022-08-21T16:26:41.965Z,2.43
2022-08-21T16:29:53.294Z,2.10
2022-08-21T16:33:04.949Z,2.13
2022-08-21T16:36:16.621Z,2.10
2022-08-21T16:39:26.318Z,2.60
2022-08-21T16:42:36.854Z,2.20
2022-08-21T16:45:46.611Z,2.10
2022-08-21T16:48:56.241Z,2.50
2022-08-21T16:52:08.490Z,2.53
2022-08-21T16:55:19.356Z,2.87
2022-08-21T16:58:33.182Z,2.10
2022-08-21T17:01:43.410Z,2.17
2022-08-21T17:04:53.510Z,1.87
2022-08-21T17:08:04.654Z,2.10
2022-08-21T17:11:36.690Z,2.13
2022-08-21T17:14:48.414Z,2.33
2022-08-21T17:17:58.240Z,2.30
2022-08-21T17:21:07.958Z,1.83
2022-08-21T17:24:18.891Z,2.30
2022-08-21T17:27:29.102Z,2.20
2022-08-21T17:30:42.785Z,2.30
2022-08-21T17:33:54.741Z,2.57
2022-08-21T17:37:07.205Z,2.23
2022-08-21T17:40:18.267Z,2.33
2022-08-21T17:43:28.176Z,2.33
2022-08-21T17:46:39.665Z,2.23
2022-08-21T17:49:49.247Z,2.00
2022-08-21T17:52:59.133Z,2.43
2022-08-21T17:56:10.466Z,2.10
2022-08-21T17:59:21.361Z,2.23
2022-08-21T18:02:31.695Z,2.93
2022-08-21T18:05:41.652Z,2.30
2022-08-21T18:08:52.239Z,2.20
2022-08-21T18:12:03.500Z,1.97
2022-08-21T18:15:16.609Z,2.43
2022-08-21T18:18:27.939Z,2.30
2022-08-21T18:21:37.646Z,1.97
2022-08-21T18:24:47.310Z,2.17
2022-08-21T18:27:58.419Z,2.17
2022-08-21T18:31:09.227Z,2.70
2022-08-21T18:34:26.531Z,3.23
2022-08-21T18:37:36.701Z,2.63
2022-08-21T18:40:55.728Z,2.27
2022-08-21T18:44:07.145Z,2.30
2022-08-21T18:47:22.141Z,2.43
2022-08-21T18:50:31.753Z,2.10
2022-08-21T18:53:41.387Z,2.33
2022-08-21T18:56:54.688Z,2.40
2022-08-21T19:00:10.466Z,2.03
2022-08-21T19:03:23.771Z,2.20
2022-08-21T19:06:36.117Z,2.47
2022-08-21T19:10:07.539Z,2.00
2022-08-21T19:13:20.042Z,2.30
2022-08-21T19:16:31.235Z,2.27
2022-08-21T19:19:41.143Z,2.13
2022-08-21T19:22:53.705Z,2.30
2022-08-21T19:26:08.536Z,2.00
2022-08-21T19:29:20.818Z,2.40
2022-08-21T19:32:50.738Z,2.33
2022-08-21T19:36:01.484Z,2.30
2022-08-21T19:39:11.910Z,1.90
2022-08-21T19:42:22.414Z,2.27
2022-08-21T19:45:38.995Z,2.43
2022-08-21T19:48:51.319Z,3.97
2022-08-21T19:52:01.428Z,2.47
2022-08-21T19:55:11.548Z,2.40
2022-08-21T19:58:29.405Z,2.17
2022-08-21T20:01:40.382Z,2.37
2022-08-21T20:04:53.867Z,2.23
2022-08-21T20:08:05.030Z,2.47
2022-08-21T20:11:16.310Z,2.17
2022-08-21T20:14:30.481Z,2.00
2022-08-21T20:17:42.607Z,2.43
2022-08-21T20:20:54.413Z,2.53
